Linden, Wisconsin
Current Conditions -  °F | °C
As of 3:35 AM on Friday 28 Nov 2014 (Local Time) from KMRJ Reporting Station
Light Snow Light Snow  
Wind Chill:   Ceiling: 7000
Heat Index: 16°   Visibility: 10mi
Dew Point:   Wind: 7mph
Humidity: 73%   Direction: 150°SSE
Pressure: 30.25"   Gusts: NA
Location:  42.92°N, 90.27°W
Report Text: KMRJ 280935Z AUTO 15006KT 10SM -SN SCT046 SCT060 OVC070 M09/M13 A3025 RMK AO2
Loading
Personal Weather Stations






























Interactive Weather Map New forecast layout! Learn more

10-Day Weather Forecast

Advertisements
Track Severe Weather on mobile